createdAt,value
2019-05-05T00:00:04.928Z,90.39
2019-05-05T00:01:05.239Z,90.50
2019-05-05T00:02:04.464Z,90.91
2019-05-05T00:03:04.260Z,90.81
2019-05-05T00:04:04.460Z,91.27
2019-05-05T00:05:04.931Z,91.27
2019-05-05T00:06:05.294Z,91.58
2019-05-05T00:07:04.424Z,91.16
2019-05-05T00:08:04.937Z,91.69
2019-05-05T00:09:05.394Z,91.79
2019-05-05T00:10:04.592Z,91.79
2019-05-05T00:11:05.030Z,91.79
2019-05-05T00:12:05.318Z,92.10
2019-05-05T00:13:04.510Z,91.79
2019-05-05T00:14:04.735Z,91.89
2019-05-05T00:15:05.289Z,92.10
2019-05-05T00:16:04.671Z,92.10
2019-05-05T00:17:05.331Z,92.14
2019-05-05T00:18:05.422Z,91.83
2019-05-05T00:19:04.781Z,91.83
2019-05-05T00:20:05.229Z,91.69
2019-05-05T00:21:04.631Z,91.83
2019-05-05T00:22:04.565Z,91.72
2019-05-05T00:23:05.314Z,91.62
2019-05-05T00:24:04.636Z,91.72
2019-05-05T00:26:04.546Z,91.72
2019-05-05T00:27:04.285Z,91.83
2019-05-05T00:28:04.993Z,92.25
2019-05-05T00:29:04.403Z,92.56
2019-05-05T00:30:05.285Z,91.94
2019-05-05T00:31:04.658Z,91.98
2019-05-05T00:32:04.981Z,92.40
2019-05-05T00:33:05.404Z,91.87
2019-05-05T00:34:04.987Z,92.60
2019-05-05T00:35:04.337Z,92.29
2019-05-05T00:36:07.046Z,92.40
2019-05-05T00:37:04.679Z,93.23
2019-05-05T00:38:05.104Z,92.92
2019-05-05T00:39:04.329Z,93.02
2019-05-05T00:40:05.006Z,92.82
2019-05-05T00:41:05.321Z,93.54
2019-05-05T00:42:04.775Z,93.44
2019-05-05T00:43:05.358Z,93.02
2019-05-05T00:44:04.794Z,93.76
2019-05-05T00:45:04.909Z,93.44
2019-05-05T00:46:04.669Z,93.54
2019-05-05T00:47:05.186Z,93.86
2019-05-05T00:48:04.701Z,93.54
2019-05-05T00:49:05.314Z,93.96
2019-05-05T00:50:05.195Z,94.13
2019-05-05T00:51:04.627Z,94.27
2019-05-05T00:52:05.105Z,94.13
2019-05-05T00:53:05.246Z,94.13
2019-05-05T00:54:04.373Z,94.13
2019-05-05T00:55:04.593Z,94.13
2019-05-05T00:56:04.959Z,94.76
2019-05-05T00:57:04.470Z,94.86
2019-05-05T00:58:05.130Z,94.55
2019-05-05T00:59:04.572Z,94.76
2019-05-05T01:00:04.955Z,94.65
2019-05-05T01:02:04.637Z,94.34
2019-05-05T01:03:04.762Z,94.65
2019-05-05T01:04:05.142Z,94.34
2019-05-05T01:06:04.523Z,94.65
2019-05-05T01:07:04.966Z,94.76
2019-05-05T01:08:05.125Z,94.65
2019-05-05T01:09:04.289Z,94.76
2019-05-05T01:10:04.851Z,94.65
2019-05-05T01:12:04.389Z,94.76
2019-05-05T01:13:04.715Z,94.86
2019-05-05T01:14:04.922Z,94.76
2019-05-05T01:15:04.603Z,94.76
2019-05-05T01:16:04.816Z,94.76
2019-05-05T01:17:05.139Z,94.76
2019-05-05T01:18:04.588Z,94.65
2019-05-05T01:19:04.519Z,94.76
2019-05-05T01:20:04.579Z,95.28
2019-05-05T01:21:04.553Z,96.11
2019-05-05T01:22:04.836Z,95.17
2019-05-05T01:23:04.417Z,95.44
2019-05-05T01:24:04.964Z,95.80
2019-05-05T01:26:05.052Z,95.49
2019-05-05T01:27:04.272Z,95.28
2019-05-05T01:28:04.856Z,95.49
2019-05-05T01:29:02.829Z,96.22
2019-05-05T01:30:04.670Z,96.33
2019-05-05T01:31:02.742Z,95.90
2019-05-05T01:32:04.932Z,95.80
2019-05-05T01:33:02.799Z,96.22
2019-05-05T01:34:04.691Z,96.22
2019-05-05T01:35:02.790Z,96.01
2019-05-05T01:36:04.523Z,96.01
2019-05-05T01:37:04.778Z,95.80
2019-05-05T01:38:04.779Z,96.01
2019-05-05T01:39:04.289Z,96.11
2019-05-05T01:40:04.372Z,95.80
2019-05-05T01:41:04.216Z,95.59
2019-05-05T01:42:04.780Z,96.01
2019-05-05T01:43:02.631Z,95.59
2019-05-05T01:44:04.686Z,96.01
2019-05-05T01:45:04.558Z,95.80
2019-05-05T01:46:02.571Z,96.01
2019-05-05T01:47:02.658Z,95.70
2019-05-05T01:48:02.544Z,95.90
2019-05-05T01:49:02.803Z,96.33
2019-05-05T01:50:16.753Z,96.33
2019-05-05T01:51:05.033Z,96.43
2019-05-05T01:52:04.386Z,97.05
2019-05-05T01:53:04.615Z,97.27
2019-05-05T01:54:02.528Z,97.11
2019-05-05T01:55:02.469Z,97.11
2019-05-05T01:56:04.708Z,97.22
2019-05-05T01:57:02.440Z,96.91
2019-05-05T01:58:04.571Z,96.38
2019-05-05T01:59:02.456Z,95.97
2019-05-05T02:00:04.240Z,96.28
2019-05-05T02:01:02.394Z,96.28
2019-05-05T02:02:04.304Z,96.59
2019-05-05T02:03:04.327Z,96.28
2019-05-05T02:04:02.518Z,95.70
2019-05-05T02:05:04.462Z,95.70
2019-05-05T02:06:02.375Z,95.80
2019-05-05T02:07:02.344Z,96.11
2019-05-05T02:08:04.705Z,95.76
2019-05-05T02:09:02.312Z,95.90
2019-05-05T02:10:05.809Z,96.01
2019-05-05T02:11:02.293Z,95.90
2019-05-05T02:12:02.318Z,95.80
2019-05-05T02:13:04.475Z,95.59
2019-05-05T02:14:02.353Z,95.55
2019-05-05T02:15:04.139Z,95.76
2019-05-05T02:16:04.419Z,96.74
2019-05-05T02:17:02.243Z,96.28
2019-05-05T02:18:04.340Z,96.11
2019-05-05T02:19:02.208Z,96.38
2019-05-05T02:20:02.298Z,96.28
2019-05-05T02:21:02.182Z,95.76
2019-05-05T02:22:02.282Z,95.86
2019-05-05T02:23:02.163Z,95.86
2019-05-05T02:24:02.199Z,95.97
2019-05-05T02:25:03.798Z,96.28
2019-05-05T02:26:02.211Z,96.17
2019-05-05T02:27:02.115Z,96.59
2019-05-05T02:28:04.310Z,96.07
2019-05-05T02:29:02.094Z,95.86
2019-05-05T02:30:05.800Z,96.07
2019-05-05T02:31:02.088Z,95.86
2019-05-05T02:32:02.152Z,95.97
2019-05-05T02:33:02.062Z,95.86
2019-05-05T02:34:02.159Z,96.07
2019-05-05T02:35:02.056Z,95.97
2019-05-05T02:36:02.075Z,96.07
2019-05-05T02:37:02.013Z,95.76
2019-05-05T02:38:02.090Z,96.07
2019-05-05T02:39:01.992Z,95.76
2019-05-05T02:40:04.344Z,96.07
2019-05-05T02:41:05.106Z,96.07
2019-05-05T02:42:02.026Z,96.07
2019-05-05T02:43:01.947Z,96.07
2019-05-05T02:44:04.881Z,95.65
2019-05-05T02:45:05.084Z,95.97
2019-05-05T02:46:02.084Z,95.86
2019-05-05T02:47:04.565Z,95.97
2019-05-05T02:48:05.548Z,95.86
2019-05-05T02:49:05.041Z,95.97
2019-05-05T02:50:05.017Z,96.07
2019-05-05T02:51:03.011Z,95.55
2019-05-05T02:52:04.699Z,96.11
2019-05-05T02:53:03.883Z,95.80
2019-05-05T02:54:01.891Z,96.01
2019-05-05T02:55:03.978Z,96.11
2019-05-05T02:56:04.013Z,95.76
2019-05-05T02:57:01.802Z,96.11
2019-05-05T02:58:03.745Z,95.59
2019-05-05T02:59:01.777Z,95.70
2019-05-05T03:00:01.836Z,96.28
2019-05-05T03:01:01.785Z,96.38
2019-05-05T03:02:04.157Z,96.33
2019-05-05T03:03:01.735Z,96.38
2019-05-05T03:04:03.780Z,96.22
2019-05-05T03:05:01.813Z,95.97
2019-05-05T03:06:01.804Z,96.17
2019-05-05T03:07:01.698Z,96.17
2019-05-05T03:08:01.784Z,96.33
2019-05-05T03:09:01.668Z,96.33
2019-05-05T03:10:03.596Z,96.28
2019-05-05T03:11:03.801Z,96.22
2019-05-05T03:12:01.740Z,96.07
2019-05-05T03:13:01.639Z,96.95
2019-05-05T03:14:03.926Z,97.01
2019-05-05T03:15:03.999Z,97.22
2019-05-05T03:16:03.648Z,97.01
2019-05-05T03:17:01.610Z,97.01
2019-05-05T03:18:01.648Z,97.27
2019-05-05T03:19:03.445Z,96.70
2019-05-05T03:20:03.959Z,96.38
2019-05-05T03:21:06.721Z,96.80
2019-05-05T03:22:03.634Z,97.11
2019-05-05T03:23:01.537Z,97.22
2019-05-05T03:24:03.594Z,96.70
2019-05-05T03:25:01.504Z,96.91
2019-05-05T03:26:03.806Z,97.11
2019-05-05T03:27:03.678Z,96.59
2019-05-05T03:28:01.510Z,96.86
2019-05-05T03:29:01.459Z,97.07
2019-05-05T03:30:04.713Z,97.17
2019-05-05T03:31:04.764Z,97.17
2019-05-05T03:32:05.183Z,97.07
2019-05-05T03:33:05.092Z,96.86
2019-05-05T03:34:01.474Z,97.03
2019-05-05T03:35:01.397Z,97.07
2019-05-05T03:36:03.445Z,96.92
2019-05-05T03:37:01.428Z,97.07
2019-05-05T03:38:01.487Z,97.13
2019-05-05T03:39:01.344Z,97.07
2019-05-05T03:40:01.446Z,97.03
2019-05-05T03:41:03.503Z,97.24
2019-05-05T03:42:03.529Z,97.03
2019-05-05T03:43:01.304Z,97.13
2019-05-05T03:44:01.461Z,96.92
2019-05-05T03:45:01.289Z,96.71
2019-05-05T03:46:01.333Z,96.82
2019-05-05T03:47:03.446Z,96.71
2019-05-05T03:48:01.348Z,96.76
2019-05-05T03:49:01.265Z,97.13
2019-05-05T03:50:01.414Z,96.82
2019-05-05T03:51:01.230Z,96.92
2019-05-05T03:52:01.314Z,96.61
2019-05-05T03:53:01.235Z,96.61
2019-05-05T03:54:01.420Z,96.92
2019-05-05T03:55:03.643Z,96.82
2019-05-05T03:56:01.231Z,96.82
2019-05-05T03:57:01.152Z,97.03
2019-05-05T03:58:01.477Z,97.13
2019-05-05T03:59:01.131Z,97.03
2019-05-05T04:00:01.266Z,97.13
2019-05-05T04:01:01.118Z,97.13
2019-05-05T04:02:01.158Z,96.92
2019-05-05T04:03:01.127Z,96.92
2019-05-05T04:04:02.941Z,97.24
2019-05-05T04:05:01.071Z,96.92
2019-05-05T04:06:01.159Z,96.82
2019-05-05T04:07:01.056Z,97.07
2019-05-05T04:08:01.112Z,97.13
2019-05-05T04:09:01.056Z,96.55
2019-05-05T04:10:01.090Z,96.82
2019-05-05T04:11:01.007Z,96.44
2019-05-05T04:12:01.103Z,96.61
2019-05-05T04:13:01.008Z,97.07
2019-05-05T04:14:01.014Z,96.66
2019-05-05T04:15:00.996Z,96.66
2019-05-05T04:16:01.042Z,96.66
2019-05-05T04:17:00.961Z,96.66
2019-05-05T04:18:01.074Z,97.17
2019-05-05T04:19:00.922Z,97.07
2019-05-05T04:20:00.964Z,97.17
2019-05-05T04:21:00.895Z,96.86
2019-05-05T04:22:00.967Z,96.86
2019-05-05T04:23:00.909Z,96.86
2019-05-05T04:24:01.010Z,97.17
2019-05-05T04:25:00.888Z,96.97
2019-05-05T04:26:00.899Z,97.01
2019-05-05T04:27:00.837Z,97.07
2019-05-05T04:28:00.954Z,96.86
2019-05-05T04:29:03.221Z,97.28
2019-05-05T04:30:00.931Z,97.38
2019-05-05T04:31:00.794Z,97.49
2019-05-05T04:32:00.831Z,97.17
2019-05-05T04:33:00.775Z,97.07
2019-05-05T04:34:00.982Z,97.80
2019-05-05T04:35:00.773Z,98.01
2019-05-05T04:36:00.859Z,98.22
2019-05-05T04:37:00.727Z,98.11
2019-05-05T04:38:00.775Z,98.07
2019-05-05T04:39:00.770Z,97.91
2019-05-05T04:40:00.803Z,98.18
2019-05-05T04:41:00.697Z,97.86
2019-05-05T04:42:00.801Z,97.91
2019-05-05T04:43:00.671Z,98.18
2019-05-05T04:44:00.955Z,98.28
2019-05-05T04:45:00.673Z,98.18
2019-05-05T04:46:00.728Z,98.69
2019-05-05T04:47:00.628Z,97.97
2019-05-05T04:48:00.748Z,98.55
2019-05-05T04:49:00.643Z,98.38
2019-05-05T04:50:00.651Z,98.38
2019-05-05T04:51:00.591Z,98.23
2019-05-05T04:52:00.665Z,98.23
2019-05-05T04:53:00.584Z,98.34
2019-05-05T04:54:00.700Z,98.34
2019-05-05T04:55:00.580Z,98.13
2019-05-05T04:56:00.593Z,97.81
2019-05-05T04:57:00.529Z,98.02
2019-05-05T04:58:00.604Z,97.67
2019-05-05T04:59:00.531Z,97.67
2019-05-05T05:00:00.658Z,98.08
2019-05-05T05:01:00.492Z,97.77
2019-05-05T05:02:00.540Z,97.67
2019-05-05T05:03:00.462Z,98.04
2019-05-05T05:04:00.970Z,97.94
2019-05-05T05:05:00.485Z,98.04
2019-05-05T05:06:00.664Z,98.04
2019-05-05T05:07:00.416Z,97.83
2019-05-05T05:08:00.884Z,98.04
2019-05-05T05:09:00.413Z,97.06
2019-05-05T05:10:01.034Z,96.95
2019-05-05T05:11:00.384Z,96.39
2019-05-05T05:12:01.015Z,96.64
2019-05-05T05:13:00.361Z,96.70
2019-05-05T05:14:03.900Z,96.59
2019-05-05T05:15:00.377Z,96.70
2019-05-05T05:17:03.401Z,95.76
2019-05-05T05:19:01.463Z,95.30
2019-05-05T05:20:03.637Z,95.83
2019-05-05T05:21:00.423Z,95.40
2019-05-05T05:23:03.486Z,95.72
2019-05-05T05:25:01.501Z,95.93
2019-05-05T05:27:01.387Z,95.78
2019-05-05T05:29:01.345Z,94.95
2019-05-05T05:30:01.783Z,94.95
2019-05-05T05:31:00.159Z,94.49
2019-05-05T05:32:03.992Z,94.80
2019-05-05T05:33:00.148Z,94.38
2019-05-05T05:34:04.231Z,94.49
2019-05-05T05:35:00.181Z,94.28
2019-05-05T05:36:03.932Z,94.13
2019-05-05T05:37:00.095Z,94.18
2019-05-05T05:38:02.014Z,93.82
2019-05-05T05:39:00.079Z,93.93
2019-05-05T05:40:03.928Z,93.20
2019-05-05T05:41:00.134Z,93.30
2019-05-05T05:42:04.415Z,93.30
2019-05-05T05:43:00.038Z,93.93
2019-05-05T05:45:01.185Z,93.37
2019-05-05T05:46:04.281Z,92.94
2019-05-05T05:46:59.992Z,92.63
2019-05-05T05:48:04.106Z,92.84
2019-05-05T05:48:59.980Z,92.38
2019-05-05T05:50:03.966Z,92.59
2019-05-05T05:50:59.992Z,92.69
2019-05-05T05:52:13.386Z,92.59
2019-05-05T05:53:00.919Z,92.28
2019-05-05T05:55:01.059Z,92.35
2019-05-05T05:56:04.342Z,92.03
2019-05-05T05:56:59.896Z,92.10
2019-05-05T05:59:01.018Z,92.30
2019-05-05T06:01:00.993Z,90.91
2019-05-05T06:03:00.961Z,91.02
2019-05-05T06:05:00.956Z,91.22
2019-05-05T06:06:04.756Z,90.81
2019-05-05T06:06:59.791Z,90.91
2019-05-05T06:09:00.913Z,90.39
2019-05-05T06:11:00.925Z,89.46
2019-05-05T06:13:00.870Z,89.94
2019-05-05T06:15:01.166Z,89.62
2019-05-05T06:16:04.695Z,89.42
2019-05-05T06:16:59.694Z,89.62
2019-05-05T06:18:04.666Z,89.25
2019-05-05T06:18:59.653Z,90.08
2019-05-05T06:20:04.086Z,90.04
2019-05-05T06:20:59.613Z,89.73
2019-05-05T06:22:03.602Z,89.38
2019-05-05T06:22:59.602Z,89.38
2019-05-05T06:24:04.538Z,89.17
2019-05-05T06:24:59.574Z,88.45
2019-05-05T06:26:06.715Z,89.69
2019-05-05T06:26:59.592Z,88.55
2019-05-05T06:28:04.239Z,89.75
2019-05-05T06:28:59.535Z,88.40
2019-05-05T06:30:04.513Z,88.40
2019-05-05T06:30:59.521Z,89.34
2019-05-05T06:32:04.004Z,88.88
2019-05-05T06:32:59.476Z,87.43
2019-05-05T06:34:03.796Z,87.06
2019-05-05T06:34:59.483Z,87.54
2019-05-05T06:36:03.808Z,87.54
2019-05-05T06:36:59.487Z,87.74
2019-05-05T06:38:04.635Z,87.64
2019-05-05T06:38:59.414Z,87.95
2019-05-05T06:40:03.766Z,88.01
2019-05-05T06:40:59.417Z,87.74
2019-05-05T06:42:04.504Z,87.49
2019-05-05T06:42:59.421Z,87.18
2019-05-05T06:44:59.368Z,87.54
2019-05-05T06:46:59.352Z,87.43
2019-05-05T06:48:04.203Z,87.43
2019-05-05T06:48:59.355Z,87.74
2019-05-05T06:50:03.551Z,88.57
2019-05-05T06:50:59.303Z,86.91
2019-05-05T06:52:03.877Z,87.64
2019-05-05T06:52:59.292Z,87.12
2019-05-05T06:53:59.387Z,87.33
2019-05-05T06:54:59.239Z,88.36
2019-05-05T06:55:59.300Z,88.46
2019-05-05T06:56:59.221Z,89.19
2019-05-05T06:57:59.330Z,88.26
2019-05-05T06:58:59.194Z,89.40
2019-05-05T06:59:59.328Z,88.26
2019-05-05T07:00:59.202Z,87.33
2019-05-05T07:01:59.218Z,88.01
2019-05-05T07:02:59.192Z,87.43
2019-05-05T07:03:59.230Z,87.43
2019-05-05T07:04:59.151Z,88.06
2019-05-05T07:05:59.248Z,88.01
2019-05-05T07:06:59.117Z,88.53
2019-05-05T07:07:59.192Z,88.43
2019-05-05T07:08:59.100Z,88.64
2019-05-05T07:09:59.200Z,87.29
2019-05-05T07:10:59.071Z,87.39
2019-05-05T07:11:59.086Z,87.60
2019-05-05T07:12:59.084Z,87.39
2019-05-05T07:13:59.126Z,88.39
2019-05-05T07:14:59.032Z,88.43
2019-05-05T07:15:59.167Z,87.35
2019-05-05T07:16:59.017Z,87.39
2019-05-05T07:17:59.069Z,87.97
2019-05-05T07:18:58.982Z,87.56
2019-05-05T07:19:59.037Z,87.46
2019-05-05T07:20:58.985Z,86.83
2019-05-05T07:21:59.047Z,86.83
2019-05-05T07:23:02.357Z,87.35
2019-05-05T07:24:03.990Z,86.83
2019-05-05T07:24:58.917Z,87.35
2019-05-05T07:25:59.000Z,86.94
2019-05-05T07:26:58.903Z,87.41
2019-05-05T07:27:59.030Z,87.21
2019-05-05T07:28:58.873Z,86.55
2019-05-05T07:29:58.901Z,86.76
2019-05-05T07:30:58.892Z,85.52
2019-05-05T07:31:58.934Z,85.83
2019-05-05T07:32:58.838Z,86.10
2019-05-05T07:33:58.969Z,84.65
2019-05-05T07:34:58.809Z,84.55
2019-05-05T07:36:03.262Z,83.41
2019-05-05T07:36:59.791Z,84.23
2019-05-05T07:37:58.858Z,84.89
2019-05-05T07:38:58.787Z,85.06
2019-05-05T07:39:58.866Z,85.37
2019-05-05T07:40:58.764Z,84.41
2019-05-05T07:41:58.903Z,85.39
2019-05-05T07:42:58.729Z,84.88
2019-05-05T07:43:58.851Z,83.50
2019-05-05T07:44:58.704Z,82.40
2019-05-05T07:45:58.812Z,82.61
2019-05-05T07:46:58.679Z,82.68
2019-05-05T07:47:58.848Z,83.09
2019-05-05T07:48:58.716Z,82.68
2019-05-05T07:49:58.741Z,82.20
2019-05-05T07:51:02.006Z,82.51
2019-05-05T07:51:58.766Z,83.23
2019-05-05T07:53:11.496Z,84.27
2019-05-05T07:53:59.651Z,84.33
2019-05-05T07:54:58.666Z,83.40
2019-05-05T07:55:58.594Z,83.19
2019-05-05T07:56:58.678Z,82.37
2019-05-05T07:57:58.565Z,82.78
2019-05-05T07:58:58.606Z,81.99
2019-05-05T07:59:58.692Z,82.82
2019-05-05T08:00:58.608Z,83.23
2019-05-05T08:01:58.524Z,83.85
2019-05-05T08:02:58.629Z,83.54
2019-05-05T08:03:58.530Z,84.33
2019-05-05T08:04:58.640Z,83.71
2019-05-05T08:05:58.489Z,84.22
2019-05-05T08:06:58.576Z,84.94
2019-05-05T08:07:58.452Z,83.40
2019-05-05T08:08:58.591Z,83.40
2019-05-05T08:09:58.466Z,83.19
2019-05-05T08:10:58.490Z,82.26
2019-05-05T08:11:58.416Z,82.54
2019-05-05T08:12:58.491Z,83.26
2019-05-05T08:13:58.407Z,83.05
2019-05-05T08:14:58.547Z,82.74
2019-05-05T08:16:00.150Z,82.54
2019-05-05T08:16:58.425Z,83.77
2019-05-05T08:17:58.360Z,83.26
2019-05-05T08:18:58.427Z,82.81
2019-05-05T08:19:58.364Z,83.12
2019-05-05T08:20:58.456Z,82.29
2019-05-05T08:21:58.326Z,81.67
2019-05-05T08:22:58.359Z,81.88
2019-05-05T08:23:58.330Z,80.75
2019-05-05T08:24:58.390Z,81.37
2019-05-05T08:25:58.281Z,81.84
2019-05-05T08:26:58.397Z,81.23
2019-05-05T08:27:58.237Z,79.88
2019-05-05T08:28:58.285Z,79.68
2019-05-05T08:29:58.262Z,79.47
2019-05-05T08:30:58.311Z,79.58
2019-05-05T08:31:58.193Z,80.30
2019-05-05T08:32:58.217Z,80.16
2019-05-05T08:33:58.181Z,81.60
2019-05-05T08:35:00.990Z,81.46
2019-05-05T08:35:58.175Z,80.63
2019-05-05T08:36:59.932Z,80.29
2019-05-05T08:37:58.545Z,79.47
2019-05-05T08:38:58.255Z,78.50
2019-05-05T08:39:58.534Z,77.48
2019-05-05T08:40:58.183Z,77.89
2019-05-05T08:41:58.102Z,77.44
2019-05-05T08:42:58.307Z,77.51
2019-05-05T08:43:58.403Z,76.89
2019-05-05T08:44:58.389Z,75.56
2019-05-05T08:45:58.039Z,74.12
2019-05-05T08:46:58.105Z,74.94
2019-05-05T08:47:58.040Z,74.15
2019-05-05T08:48:58.125Z,75.29
2019-05-05T08:49:58.010Z,75.52
2019-05-05T08:50:58.076Z,76.42
2019-05-05T08:51:57.984Z,76.82
2019-05-05T08:52:58.055Z,76.72
2019-05-05T08:53:57.977Z,75.04
2019-05-05T08:54:58.091Z,75.35
2019-05-05T08:55:57.963Z,75.25
2019-05-05T08:56:57.974Z,74.12
2019-05-05T08:57:57.911Z,74.80
2019-05-05T08:58:57.989Z,75.11
2019-05-05T08:59:57.927Z,75.18
2019-05-05T09:00:57.943Z,73.74
2019-05-05T09:01:57.870Z,74.40
2019-05-05T09:02:57.918Z,73.44
2019-05-05T09:03:57.846Z,73.64
2019-05-05T09:04:57.923Z,75.15
2019-05-05T09:05:57.882Z,74.02
2019-05-05T09:06:57.849Z,73.61
2019-05-05T09:07:57.799Z,74.12
2019-05-05T09:08:57.853Z,71.76
2019-05-05T09:09:57.782Z,72.41
2019-05-05T09:10:57.891Z,74.36
2019-05-05T09:11:57.790Z,73.30
2019-05-05T09:12:57.796Z,73.27
2019-05-05T09:13:57.743Z,72.34
2019-05-05T09:14:57.801Z,72.31
2019-05-05T09:15:57.745Z,71.28
2019-05-05T09:16:57.828Z,70.06
2019-05-05T09:17:57.690Z,69.51
2019-05-05T09:18:57.726Z,68.97
2019-05-05T09:19:57.670Z,68.93
2019-05-05T09:20:57.769Z,67.19
2019-05-05T09:21:57.656Z,67.71
2019-05-05T09:22:57.758Z,69.24
2019-05-05T09:24:01.730Z,66.48
2019-05-05T09:24:58.679Z,68.93
2019-05-05T09:25:57.679Z,67.30
2019-05-05T09:26:57.677Z,66.86
2019-05-05T09:27:57.602Z,65.84
2019-05-05T09:28:57.695Z,65.22
2019-05-05T09:29:57.562Z,64.81
2019-05-05T09:30:57.650Z,63.25
2019-05-05T09:31:57.566Z,63.66
2019-05-05T09:32:57.612Z,65.22
2019-05-05T09:33:57.529Z,64.64
2019-05-05T09:34:57.639Z,65.15
2019-05-05T09:35:57.505Z,63.92
2019-05-05T09:36:57.584Z,62.70
2019-05-05T09:37:57.476Z,62.23
2019-05-05T09:38:57.570Z,63.83
2019-05-05T09:39:57.505Z,62.71
2019-05-05T09:40:57.575Z,64.04
2019-05-05T09:41:57.452Z,61.97
2019-05-05T09:42:57.491Z,57.75
2019-05-05T09:43:57.409Z,58.67
2019-05-05T09:44:57.490Z,61.43
2019-05-05T09:45:57.386Z,61.32
2019-05-05T09:46:57.533Z,63.03
2019-05-05T09:47:57.362Z,59.94
2019-05-05T09:48:57.431Z,58.67
2019-05-05T09:49:57.343Z,56.73
2019-05-05T09:50:57.468Z,55.41
2019-05-05T09:51:57.369Z,55.28
2019-05-05T09:52:57.361Z,56.20
2019-05-05T09:54:10.256Z,54.97
2019-05-05T09:54:58.289Z,56.22
2019-05-05T09:55:57.381Z,56.60
2019-05-05T09:56:57.315Z,54.79
2019-05-05T09:57:57.375Z,55.18
2019-05-05T09:58:57.252Z,54.54
2019-05-05T09:59:57.300Z,53.72
2019-05-05T10:00:57.231Z,54.92
2019-05-05T10:01:57.324Z,52.48
2019-05-05T10:02:57.224Z,52.58
2019-05-05T10:03:57.314Z,49.96
2019-05-05T10:04:57.232Z,49.88
2019-05-05T10:05:57.233Z,51.74
2019-05-05T10:06:57.295Z,50.97
2019-05-05T10:07:57.270Z,52.29
2019-05-05T10:08:57.154Z,52.53
2019-05-05T10:09:57.159Z,52.98
2019-05-05T10:10:57.118Z,54.31
2019-05-05T10:11:57.180Z,55.56
2019-05-05T10:12:57.113Z,56.89
2019-05-05T10:13:57.190Z,56.51
2019-05-05T10:14:57.101Z,56.71
2019-05-05T10:15:57.098Z,57.79
2019-05-05T10:16:57.055Z,60.17
2019-05-05T10:17:57.156Z,62.35
2019-05-05T10:18:57.033Z,64.42
2019-05-05T10:19:57.137Z,66.67
2019-05-05T10:20:57.004Z,65.27
2019-05-05T10:21:57.088Z,66.33
2019-05-05T10:22:57.019Z,67.90
2019-05-05T10:23:57.042Z,69.26
2019-05-05T10:24:57.637Z,70.63
2019-05-05T10:25:57.076Z,73.36
2019-05-05T10:26:58.678Z,74.32
2019-05-05T10:27:57.018Z,74.12
2019-05-05T10:28:56.913Z,73.81
2019-05-05T10:29:56.985Z,75.25
2019-05-05T10:30:56.901Z,76.86
2019-05-05T10:31:57.001Z,76.86
2019-05-05T10:32:56.891Z,73.68
2019-05-05T10:33:56.936Z,72.85
2019-05-05T10:34:56.891Z,71.21
2019-05-05T10:35:56.933Z,72.85
2019-05-05T10:36:56.836Z,71.52
2019-05-05T10:37:56.977Z,70.39
2019-05-05T10:38:56.839Z,72.10
2019-05-05T10:39:56.871Z,73.02
2019-05-05T10:40:56.789Z,72.72
2019-05-05T10:41:56.869Z,71.80
2019-05-05T10:42:56.819Z,71.86
2019-05-05T10:43:56.908Z,72.17
2019-05-05T10:44:56.748Z,72.89
2019-05-05T10:45:56.800Z,74.12
2019-05-05T10:46:56.730Z,74.49
2019-05-05T10:47:56.799Z,73.06
2019-05-05T10:48:59.599Z,71.52
2019-05-05T10:49:56.812Z,72.14
2019-05-05T10:50:56.687Z,71.11
2019-05-05T10:51:56.738Z,70.98
2019-05-05T10:52:56.659Z,70.16
2019-05-05T10:53:56.770Z,69.03
2019-05-05T10:54:56.655Z,67.40
2019-05-05T10:55:56.766Z,68.93
2019-05-05T10:56:56.622Z,69.03
2019-05-05T10:57:56.678Z,67.57
2019-05-05T10:58:56.624Z,68.59
2019-05-05T11:00:09.389Z,68.35
2019-05-05T11:00:57.566Z,67.23
2019-05-05T11:01:56.599Z,66.61
2019-05-05T11:02:59.358Z,65.08
2019-05-05T11:03:56.771Z,64.67
2019-05-05T11:04:56.530Z,64.18
2019-05-05T11:05:56.624Z,64.29
2019-05-05T11:06:56.513Z,66.31
2019-05-05T11:07:56.530Z,63.88
2019-05-05T11:08:56.529Z,63.37
2019-05-05T11:09:56.572Z,64.32
2019-05-05T11:10:56.465Z,64.62
2019-05-05T11:11:56.567Z,64.35
2019-05-05T11:12:56.456Z,65.89
2019-05-05T11:13:56.609Z,67.52
2019-05-05T11:14:56.445Z,65.24
2019-05-05T11:15:56.486Z,65.96
2019-05-05T11:16:56.413Z,63.37
2019-05-05T11:17:56.503Z,61.80
2019-05-05T11:18:56.404Z,61.36
2019-05-05T11:19:56.544Z,60.69
2019-05-05T11:20:56.354Z,61.49
2019-05-05T11:21:56.444Z,62.65
2019-05-05T11:22:56.341Z,58.11
2019-05-05T11:23:56.580Z,56.76
2019-05-05T11:25:00.694Z,55.20
2019-05-05T11:25:56.358Z,57.34
2019-05-05T11:26:56.291Z,56.60
2019-05-05T11:27:56.364Z,56.02
2019-05-05T11:28:56.275Z,55.30
2019-05-05T11:29:56.474Z,56.04
2019-05-05T11:30:56.496Z,57.19
2019-05-05T11:31:56.302Z,56.71
2019-05-05T11:32:56.225Z,57.32
2019-05-05T11:33:56.347Z,57.73
2019-05-05T11:34:56.236Z,57.34
2019-05-05T11:35:56.245Z,57.42
2019-05-05T11:36:56.309Z,57.90
2019-05-05T11:37:56.338Z,56.45
2019-05-05T11:38:56.206Z,58.87
2019-05-05T11:39:56.252Z,58.80
2019-05-05T11:40:56.238Z,59.30
2019-05-05T11:41:57.138Z,56.58
2019-05-05T11:42:56.172Z,58.95
2019-05-05T11:43:56.406Z,60.17
2019-05-05T11:44:56.206Z,60.17
2019-05-05T11:45:56.216Z,60.10
2019-05-05T11:46:56.101Z,61.22
2019-05-05T11:47:56.104Z,63.19
2019-05-05T11:48:56.283Z,61.46
2019-05-05T11:49:56.805Z,62.17
2019-05-05T11:50:56.078Z,60.36
2019-05-05T11:51:56.133Z,62.71
2019-05-05T11:52:56.130Z,62.51
2019-05-05T11:53:56.033Z,60.87
2019-05-05T11:55:08.898Z,58.83
2019-05-05T11:55:57.036Z,58.83
2019-05-05T11:56:56.207Z,59.03
2019-05-05T11:57:57.657Z,59.14
2019-05-05T11:58:56.513Z,58.80
2019-05-05T11:59:55.926Z,58.70
2019-05-05T12:00:56.022Z,59.18
2019-05-05T12:01:55.970Z,58.44
2019-05-05T12:02:56.037Z,58.41
2019-05-05T12:03:55.962Z,58.67
2019-05-05T12:04:55.912Z,57.44
2019-05-05T12:05:55.914Z,56.47
2019-05-05T12:06:56.102Z,56.24
2019-05-05T12:07:55.864Z,55.20
2019-05-05T12:08:55.942Z,56.47
2019-05-05T12:09:56.010Z,52.61
2019-05-05T12:10:55.915Z,51.06
2019-05-05T12:11:55.871Z,51.98
2019-05-05T12:12:55.917Z,51.98
2019-05-05T12:13:55.815Z,51.39
2019-05-05T12:14:55.879Z,54.59
2019-05-05T12:15:55.767Z,53.37
2019-05-05T12:16:56.063Z,52.58
2019-05-05T12:17:55.763Z,53.83
2019-05-05T12:18:55.831Z,54.36
2019-05-05T12:19:55.720Z,54.97
2019-05-05T12:20:55.834Z,54.59
2019-05-05T12:21:55.748Z,56.22
2019-05-05T12:22:55.728Z,55.15
2019-05-05T12:23:55.678Z,56.71
2019-05-05T12:24:55.756Z,58.37
2019-05-05T12:25:57.255Z,56.94
2019-05-05T12:26:55.783Z,57.04
2019-05-05T12:27:55.621Z,58.29
2019-05-05T12:28:55.683Z,59.00
2019-05-05T12:29:55.593Z,57.04
2019-05-05T12:30:55.709Z,58.95
2019-05-05T12:31:55.609Z,54.08
2019-05-05T12:32:55.636Z,54.28
2019-05-05T12:33:55.587Z,52.30
2019-05-05T12:34:55.621Z,49.96
2019-05-05T12:35:55.545Z,53.67
2019-05-05T12:36:55.637Z,51.21
2019-05-05T12:37:55.578Z,51.82
2019-05-05T12:38:55.560Z,50.70
2019-05-05T12:39:55.529Z,48.59
2019-05-05T12:40:55.562Z,50.14
2019-05-05T12:41:55.498Z,47.80
2019-05-05T12:42:55.595Z,51.46
2019-05-05T12:43:55.451Z,48.31
2019-05-05T12:44:55.700Z,51.82
2019-05-05T12:45:55.439Z,45.83
2019-05-05T12:46:55.492Z,49.16
2019-05-05T12:47:55.457Z,47.55
2019-05-05T12:48:55.508Z,47.25
2019-05-05T12:49:55.407Z,47.96
2019-05-05T12:50:55.420Z,47.45
2019-05-05T12:51:55.379Z,45.34
2019-05-05T12:52:55.680Z,45.84
2019-05-05T12:53:55.359Z,47.80
2019-05-05T12:54:55.477Z,48.74
2019-05-05T12:55:55.313Z,50.01
2019-05-05T12:56:55.356Z,48.11
2019-05-05T12:57:55.323Z,49.94
2019-05-05T12:58:55.383Z,47.78
2019-05-05T12:59:55.279Z,47.88
2019-05-05T13:00:55.397Z,50.40
2019-05-05T13:01:55.251Z,46.39
2019-05-05T13:02:55.377Z,45.28
2019-05-05T13:03:55.261Z,45.72
2019-05-05T13:04:55.304Z,47.19
2019-05-05T13:05:55.240Z,47.19
2019-05-05T13:06:55.330Z,47.88
2019-05-05T13:07:55.222Z,45.67
2019-05-05T13:08:55.365Z,46.11
2019-05-05T13:09:55.333Z,48.18
2019-05-05T13:10:55.253Z,47.89
2019-05-05T13:11:55.149Z,50.34
2019-05-05T13:12:55.327Z,49.11
2019-05-05T13:13:55.161Z,48.32
2019-05-05T13:14:55.180Z,50.48